Hovedside
METAR-TAF:

METAR-TAF

Lufthavner :

Gran Canaria internasjonale lufthavn

Gran Canaria, Spania

breddegrad: 27-56N, lengdegrad: 015-23W, høyde over havet: 23 m

Gjeldene værobservasjon

Denne rapporten ble laget for 38 minutter siden, klokken 15:00 UTC
Vind 18 kt fra Nord-nordøst
Temperatur 26°C
Luftfuktighet 70%
Trykk 1018 hPa
Sikt 10 km eller mer
Få skyer i en høyde av 3000 ft

METAR: GCLP 201500Z 03018KT 9999 FEW030 26/20 Q1018 NOSIG

Tid: 16:38 (15:38 UTC)

Varsel

Denne rapporten ble laget for 1 time og 38 minutter siden, klokken 14:00 UTC
Varsel gyldig fra 20. klokken 15 UTC til 21. klokken 15 UTC
Vind 19 kt fra Nord-nordøst
Sikt 10 km eller mer
Få skyer i en høyde av 2000 ft

TAF: GCLP 201400Z 2015/2115 02019KT 9999 FEW020 TX29/2114Z TN22/2105Z

Værobservasjoner og værvarsel for over 4000 flyplasser (METAR- og TAF-rapporter).

Tilgjengelige stasjoner er representert av de røde og gule prikkene på kartet.

Hold musepekeren over prikken for å se navnet på stasjonen.

Klikk så for å se værobservasjoner og -varsler.

For å forandre kartet kan du klikke på den grønne knappen med svart kryss for å zoome inn, på den grønne knappen med strek for å zoome ut, eller på de grønne pilene for å se tilstøtende kart.


METAR-TAF: